Terminal Aerodrome Forecast
Issued by NWS Twin Cities, MN

Home | Current Version | Previous Version | Graphics & Text | Print | Product List | Glossary On
Versions: 1 2 3 4 5 6 7 8 9 10 11 12 13 14 15 16
883
FTUS43 KMPX 081139
TAFSTC
TAF
KSTC 081139Z 0812/0912 32017G25KT 6SM -SN BLSN OVC035
      TEMPO 0812/0816 3SM -SN OVC025
     FM081700 33019G24KT P6SM OVC030
     FM082200 32013G21KT P6SM BKN035=

USA.gov is the U.S. government's official web portal to all federal, state and local government web resources and services.